Roches Point, Ireland

10:59 PM IST on August 03, 2015 (GMT +0100)
Cork | | Change Station
CLOSE
Current Station
Personal Weather Station
Location: Cork, Cork
Elevation: 60 ft
Nearby Weather Stations

Elev 60 ft 51.90 °N, 8.40 °W | Updated 51 seconds ago

Light Rain
Light Rain
56.5 °F
Feels Like 56.5 °F
N
6.0
Wind Variable Wind from SW
Gusts 27.0 mph

Today
High -- | Low -- °F
--% Chance of Precip.
Yesterday
High -- | Low -- °F
Precip. -- in
5:58 AM 9:19 PM
Waning Gibbous, 84% visible
Pressure 29.59 in
Visibility 3.7 miles
Clouds Mostly Cloudy 700 ft
Mostly Cloudy 1300 ft
Dew Point Not available.
Humidity Not available.
Rainfall 0.02 in
Snow Depth Not available.
UV 0 out of 12
Pollen Not available.
Air Quality Not available.
Flu Activity Not available.
METAR EICK 032130Z 21020G31KT 190V250 6000 -RA BKN007 BKN013 12/11 Q1002 TEMPO 5000

More Conditions Fewer Conditions

Pressure 29.59 in
Visibility 3.7 miles
Clouds Mostly Cloudy 700 ft
Mostly Cloudy 1300 ft
Dew Point Not available.
Humidity Not available.
Rainfall 0.02 in
Snow Depth Not available.
UV 0 out of 12
Pollen Not available.
Air Quality Not available.
Flu Activity Not available.
METAR EICK 032130Z 21020G31KT 190V250 6000 -RA BKN007 BKN013 12/11 Q1002 TEMPO 5000

More Conditions Fewer Conditions

10-Day Weather Forecast

×

Almanac

Astronomy

Aug. 03, 2015 Rise Set
Actual Time
Civil Twilight
Nautical Twilight
Astronomical Twilight
Moon
Length of Visible Light
Length of Day
Tomorrow will be .
, % of the Moon is Illuminated

Today's Extremes

Country Highs Country Lows

Community

WunderPhotos

Upload Photos

1,843,770 photos uploaded!

WunderBlogs® & News

Nearby

Air Quality

  Air Quality AQ Index Pollutant
Not available.

Snow Depth

Station Depth Elevation

Earthquake Activity

City Distance Mag. Time & Date
Minimum magnitude displayed is 2.5.

Coastal Water Temperatures

Place Temperature

Stations

Nearby Weather Stations

Station Location Temp. Windchill Dew Point Humidity Wind Precip. Elev Updated Type